Time;durP1;ratioP1;P1;durP2;ratioP2;P2;SDS_P1;SDS_P2;PMS_P1;PMS_P2;Temp;Humidity;BMP_temperature;BMP_pressure;BME280_temperature;BME280_humidity;BME280_pressure;Samples;Min_cycle;Max_cycle;Signal;HPM_P1;HPM_P2
2021/11/10 00:04:21;;;;;;;21.63;9.83;;;;;3.30;101955.00;;;;10447391;28;20206;-78
2021/11/10 00:09:23;;;;;;;25.90;10.37;;;;;3.20;101926.00;;;;10447279;28;20684;-79
2021/11/10 00:14:25;;;;;;;21.50;10.73;;;;;3.10;101929.00;;;;10398413;28;20198;-79
2021/11/10 00:19:27;;;;;;;19.73;10.20;;;;;3.10;101930.00;;;;10414330;28;20205;-79
2021/11/10 00:24:29;;;;;;;18.40;8.90;;;;;2.90;101927.00;;;;10462855;28;20222;-79
2021/11/10 00:29:31;;;;;;;26.87;10.27;;;;;2.90;101935.00;;;;10429604;28;20320;-79
2021/11/10 00:34:34;;;;;;;23.67;10.10;;;;;2.80;101920.00;;;;10446332;28;20565;-79
2021/11/10 00:39:36;;;;;;;24.33;10.90;;;;;2.80;101939.00;;;;10429470;28;20206;-79
2021/11/10 00:44:39;;;;;;;26.23;11.43;;;;;2.80;101920.00;;;;10412567;28;20296;-79
2021/11/10 00:49:40;;;;;;;25.57;11.67;;;;;2.80;101927.00;;;;10412900;28;20635;-79
2021/11/10 00:54:42;;;;;;;24.77;11.33;;;;;2.70;101925.00;;;;10429066;28;20194;-78
2021/11/10 00:59:45;;;;;;;19.23;11.00;;;;;2.60;101922.00;;;;10412516;28;20865;-79
2021/11/10 01:04:47;;;;;;;25.83;10.20;;;;;2.60;101920.00;;;;10412631;28;20206;-79
2021/11/10 01:09:54;;;;;;;24.33;10.10;;;;;2.50;101928.00;;;;10410887;28;20218;-79
2021/11/10 01:14:57;;;;;;;22.77;10.83;;;;;2.50;101921.00;;;;10412145;28;20198;-79
2021/11/10 01:19:59;;;;;;;26.57;10.97;;;;;2.50;101920.00;;;;10427567;28;20205;-79
2021/11/10 01:25:06;;;;;;;27.97;11.53;;;;;2.60;101921.00;;;;10428623;28;20214;-79
2021/11/10 01:30:10;;;;;;;23.70;11.67;;;;;2.60;101922.00;;;;10420854;28;20225;-79
2021/11/10 01:35:15;;;;;;;19.17;11.00;;;;;2.60;101924.00;;;;10451912;28;20200;-79
2021/11/10 01:40:20;;;;;;;24.10;10.27;;;;;2.50;101920.00;;;;10425938;28;20297;-79
2021/11/10 01:45:24;;;;;;;26.23;10.00;;;;;2.40;101921.00;;;;10410794;28;20233;-79
2021/11/10 01:50:29;;;;;;;19.27;10.27;;;;;2.30;101923.00;;;;10410587;28;20210;-79
2021/11/10 01:55:31;;;;;;;23.43;9.93;;;;;2.20;101927.00;;;;10426923;28;20278;-79
2021/11/10 02:00:38;;;;;;;23.53;10.70;;;;;2.20;101906.00;;;;10410170;28;20225;-79
2021/11/10 02:05:46;;;;;;;22.20;10.17;;;;;2.20;101901.00;;;;10411104;28;20214;-79
2021/11/10 02:11:04;;;;;;;22.33;9.23;;;;;2.10;101890.00;;;;10371413;28;20230;-79
2021/11/10 02:16:06;;;;;;;21.60;10.17;;;;;2.10;101888.00;;;;10385503;28;20203;-79
2021/11/10 02:21:10;;;;;;;21.60;10.03;;;;;2.00;101901.00;;;;10400491;28;20195;-79
2021/11/10 02:26:22;;;;;;;27.50;11.47;;;;;2.00;101889.00;;;;10384177;28;20238;-79
2021/11/10 02:31:24;;;;;;;27.13;12.83;;;;;2.10;101872.00;;;;10384052;28;20222;-79
2021/11/10 02:36:26;;;;;;;26.17;11.97;;;;;2.10;101884.00;;;;10417165;28;20289;-79
2021/11/10 02:41:30;;;;;;;30.90;13.57;;;;;2.20;101877.00;;;;10408652;28;20256;-79
2021/11/10 02:46:33;;;;;;;24.80;12.67;;;;;2.20;101879.00;;;;10408295;28;20665;-79
2021/11/10 02:51:35;;;;;;;27.20;13.23;;;;;2.10;101873.00;;;;10408459;28;20225;-79
2021/11/10 02:56:37;;;;;;;27.10;13.97;;;;;2.20;101881.00;;;;10407883;28;20202;-79
2021/11/10 03:01:39;;;;;;;34.00;15.40;;;;;2.20;101892.00;;;;10424327;28;20206;-79
2021/11/10 03:06:41;;;;;;;32.77;14.53;;;;;2.10;101906.00;;;;10424224;28;20229;-79
2021/11/10 03:11:44;;;;;;;33.57;15.70;;;;;2.20;101892.00;;;;10423435;28;20566;-79
2021/11/10 03:16:47;;;;;;;31.87;16.73;;;;;2.50;101905.00;;;;10440066;28;20584;-79
2021/11/10 03:21:49;;;;;;;32.03;17.47;;;;;2.70;101916.00;;;;10465296;28;20548;-79
2021/11/10 03:26:52;;;;;;;36.60;18.13;;;;;2.70;101924.00;;;;10447951;28;20233;-79
2021/11/10 03:31:56;;;;;;;32.80;16.77;;;;;2.60;101916.00;;;;10449203;28;20229;-79
2021/11/10 03:36:58;;;;;;;39.17;17.60;;;;;2.60;101908.00;;;;10440329;28;20262;-79
2021/11/10 03:42:02;;;;;;;37.90;17.20;;;;;2.50;101924.00;;;;10439430;28;20293;-79
2021/11/10 03:47:05;;;;;;;37.50;17.70;;;;;2.50;101931.00;;;;10456080;28;20198;-79
2021/11/10 03:52:11;;;;;;;37.47;17.37;;;;;2.50;101933.00;;;;10438963;28;20296;-79
2021/11/10 03:57:13;;;;;;;40.23;17.53;;;;;2.50;101930.00;;;;10471841;28;20261;-80
2021/11/10 04:02:16;;;;;;;46.37;19.53;;;;;2.60;101947.00;;;;10470714;28;20194;-79
2021/11/10 04:07:18;;;;;;;38.13;17.97;;;;;2.70;101937.00;;;;10434802;28;20221;-79
2021/11/10 04:12:20;;;;;;;34.03;16.73;;;;;2.70;101930.00;;;;10412795;28;20240;-79
2021/11/10 04:17:22;;;;;;;31.40;17.93;;;;;2.70;101936.00;;;;10429553;28;20202;-79
2021/11/10 04:22:24;;;;;;;34.00;16.87;;;;;2.60;101930.00;;;;10397168;28;20290;-79
2021/11/10 04:27:27;;;;;;;41.33;16.53;;;;;2.60;101941.00;;;;10412814;28;20198;-79
2021/11/10 04:32:29;;;;;;;39.53;17.07;;;;;2.60;101938.00;;;;10403939;28;20269;-79
2021/11/10 04:37:31;;;;;;;36.13;15.77;;;;;2.60;101938.00;;;;10428454;28;20822;-79
2021/11/10 04:42:36;;;;;;;35.33;16.40;;;;;2.60;101924.00;;;;10428105;28;20190;-79
2021/11/10 04:47:39;;;;;;;31.80;17.30;;;;;2.60;101933.00;;;;10428704;28;20198;-79
2021/11/10 04:52:42;;;;;;;28.97;14.80;;;;;2.40;101945.00;;;;10412089;28;20218;-79
2021/11/10 04:57:43;;;;;;;33.10;15.63;;;;;2.30;101939.00;;;;10396114;28;20206;-79
2021/11/10 05:02:45;;;;;;;36.77;16.70;;;;;2.20;101925.00;;;;10411815;28;20186;-79
2021/11/10 05:07:51;;;;;;;39.10;18.53;;;;;2.20;101926.00;;;;10411798;28;20203;-78
2021/11/10 05:12:54;;;;;;;37.73;17.70;;;;;2.10;101921.00;;;;10411178;28;20313;-79
2021/11/10 05:17:58;;;;;;;41.40;16.43;;;;;2.20;101928.00;;;;10411281;28;20542;-79
2021/11/10 05:23:00;;;;;;;35.03;16.67;;;;;2.20;101912.00;;;;10427100;28;20217;-79
2021/11/10 05:28:03;;;;;;;34.77;16.53;;;;;2.30;101909.00;;;;10443456;28;20277;-79
2021/11/10 05:33:05;;;;;;;33.80;17.67;;;;;2.30;101905.00;;;;10409758;28;20226;-78
2021/11/10 05:38:08;;;;;;;34.17;17.37;;;;;2.30;101907.00;;;;10426611;28;20210;-79
2021/11/10 05:43:10;;;;;;;30.67;17.70;;;;;2.30;101909.00;;;;10426419;28;20207;-79
2021/11/10 05:48:12;;;;;;;33.47;16.50;;;;;2.30;101904.00;;;;10459428;28;20205;-79
2021/11/10 05:53:14;;;;;;;41.83;17.20;;;;;2.30;101912.00;;;;10426498;28;20275;-79
2021/11/10 05:58:15;;;;;;;44.20;17.13;;;;;2.20;101916.00;;;;10424784;28;20229;-79
2021/11/10 06:03:18;;;;;;;38.33;15.97;;;;;2.30;101903.00;;;;10409029;28;20423;-79
2021/11/10 06:08:20;;;;;;;33.13;17.00;;;;;2.40;101903.00;;;;10425127;28;20624;-79
2021/11/10 06:13:40;;;;;;;38.97;16.93;;;;;2.50;101853.00;;;;10424802;28;20217;-79
2021/11/10 06:18:42;;;;;;;35.40;17.60;;;;;2.60;101835.00;;;;10408644;28;20240;-79
2021/11/10 06:23:44;;;;;;;40.83;17.37;;;;;2.50;101822.00;;;;10424607;28;20224;-79
2021/11/10 06:28:46;;;;;;;32.10;15.80;;;;;2.30;101879.00;;;;10424316;28;20681;-79
2021/11/10 06:33:49;;;;;;;35.90;15.20;;;;;2.10;101917.00;;;;10423356;28;20233;-79
2021/11/10 06:38:51;;;;;;;41.23;17.07;;;;;2.10;101917.00;;;;10407220;28;20226;-79
2021/11/10 06:43:52;;;;;;;29.90;15.10;;;;;2.20;101946.00;;;;10440002;28;20297;-79
2021/11/10 06:48:55;;;;;;;30.50;14.73;;;;;2.40;101936.00;;;;10423669;28;20206;-79
2021/11/10 06:54:02;;;;;;;38.17;16.53;;;;;2.50;101924.00;;;;10423433;28;20341;-79
2021/11/10 06:59:04;;;;;;;31.23;14.07;;;;;2.60;101925.00;;;;10423215;28;20202;-79
2021/11/10 07:04:06;;;;;;;35.50;16.73;;;;;2.70;101943.00;;;;10423633;28;20198;-79
2021/11/10 07:09:08;;;;;;;35.53;15.13;;;;;2.80;101943.00;;;;10413823;28;20673;-79
2021/11/10 07:14:10;;;;;;;36.37;15.90;;;;;2.90;101937.00;;;;10399712;28;20694;-79
2021/11/10 07:19:12;;;;;;;33.47;15.63;;;;;2.90;101925.00;;;;10415473;28;20202;-79
2021/11/10 07:24:14;;;;;;;27.40;14.90;;;;;2.90;101938.00;;;;10414754;28;20226;-79
2021/11/10 07:29:16;;;;;;;36.83;17.43;;;;;2.90;101945.00;;;;10431086;28;20268;-79
2021/11/10 07:34:18;;;;;;;38.90;16.87;;;;;2.90;101945.00;;;;10380039;28;20852;-79
2021/11/10 07:39:20;;;;;;;34.57;16.60;;;;;3.00;101949.00;;;;10407724;28;20714;-79
2021/11/10 07:44:23;;;;;;;31.30;16.00;;;;;3.20;101949.00;;;;10431121;28;20289;-79
2021/11/10 07:49:25;;;;;;;33.90;17.50;;;;;3.30;101946.00;;;;10406704;28;20322;-79
2021/11/10 07:54:27;;;;;;;35.77;18.13;;;;;3.60;101966.00;;;;10405378;28;20226;-79
2021/11/10 07:59:29;;;;;;;40.37;19.43;;;;;3.70;101962.00;;;;10405747;28;20203;-78
2021/11/10 08:04:31;;;;;;;42.00;19.97;;;;;3.90;101974.00;;;;10454031;28;20189;-79
2021/11/10 08:09:33;;;;;;;39.93;19.57;;;;;4.00;101987.00;;;;10413616;28;20205;-79
2021/11/10 08:14:35;;;;;;;35.87;17.27;;;;;4.00;101993.00;;;;10429309;28;20233;-80
2021/11/10 08:19:37;;;;;;;36.50;18.87;;;;;4.20;101991.00;;;;10412202;28;20279;-79
2021/11/10 08:24:40;;;;;;;38.37;18.87;;;;;4.50;102000.00;;;;10446107;28;20195;-79
2021/11/10 08:29:43;;;;;;;43.77;20.37;;;;;4.60;102000.00;;;;10430176;28;20226;-79
2021/11/10 08:34:45;;;;;;;39.80;22.40;;;;;5.10;102006.00;;;;10427248;28;20276;-79
2021/11/10 08:39:47;;;;;;;52.70;26.93;;;;;5.80;102011.00;;;;10411343;28;20207;-79
2021/11/10 08:44:53;;;;;;;45.70;24.73;;;;;6.40;102013.00;;;;10427475;28;20194;-79
2021/11/10 08:49:55;;;;;;;41.17;21.40;;;;;7.10;102021.00;;;;10411875;28;20253;-79
2021/11/10 08:54:57;;;;;;;27.73;15.73;;;;;7.50;102017.00;;;;10427141;28;20198;-79
2021/11/10 08:59:59;;;;;;;29.50;14.57;;;;;7.60;102032.00;;;;10426889;28;20677;-79
2021/11/10 09:05:07;;;;;;;24.60;13.20;;;;;7.50;102030.00;;;;10371063;28;20203;-77
2021/11/10 09:10:11;;;;;;;27.27;12.73;;;;;7.50;102030.00;;;;10443114;28;20206;-79
2021/11/10 09:15:14;;;;;;;26.33;13.70;;;;;7.50;102039.00;;;;10429735;28;20607;-77
2021/11/10 09:20:20;;;;;;;22.13;12.23;;;;;7.50;102019.00;;;;10434769;28;20201;-77
2021/11/10 09:25:28;;;;;;;24.03;14.43;;;;;8.00;102022.00;;;;10451232;28;20186;-79
2021/11/10 09:30:30;;;;;;;26.80;14.33;;;;;8.00;102028.00;;;;10465766;28;20248;-80
2021/11/10 09:35:33;;;;;;;29.80;15.27;;;;;8.10;102031.00;;;;10450321;28;20194;-80
2021/11/10 09:40:38;;;;;;;28.53;15.47;;;;;8.40;102023.00;;;;10405890;28;20661;-79
2021/11/10 09:45:40;;;;;;;26.27;15.00;;;;;8.80;102019.00;;;;10401056;28;20214;-79
2021/11/10 09:50:45;;;;;;;33.20;15.10;;;;;8.80;102033.00;;;;10384534;28;20207;-79
2021/11/10 09:55:48;;;;;;;27.63;14.40;;;;;8.80;102017.00;;;;10433730;28;20186;-78
2021/11/10 10:00:57;;;;;;;32.23;15.30;;;;;8.80;102030.00;;;;10417506;28;20241;-79
2021/11/10 10:05:59;;;;;;;31.70;14.93;;;;;8.60;102031.00;;;;10384397;28;20237;-79
2021/11/10 10:11:01;;;;;;;28.63;15.00;;;;;8.80;102043.00;;;;10441346;28;20222;-79
2021/11/10 10:16:03;;;;;;;34.00;16.03;;;;;9.20;102028.00;;;;10425175;28;20248;-79
2021/11/10 10:21:08;;;;;;;30.93;16.17;;;;;9.50;102024.00;;;;10408327;28;20200;-78
2021/11/10 10:26:21;;;;;;;29.67;15.67;;;;;9.90;102031.00;;;;10407915;28;20199;-79
2021/11/10 10:31:25;;;;;;;29.57;16.70;;;;;10.40;102034.00;;;;10403855;28;20227;-79
2021/11/10 10:36:33;;;;;;;30.70;15.70;;;;;10.90;102041.00;;;;10381100;28;20662;-79
2021/11/10 10:41:41;;;;;;;22.97;13.50;;;;;11.30;102030.00;;;;10377520;28;20199;-77
2021/11/10 10:47:02;;;;;;;27.17;13.37;;;;;11.50;102020.00;;;;10382446;28;20559;-78
2021/11/10 10:52:17;;;;;;;30.57;13.60;;;;;11.80;102009.00;;;;10398506;28;20226;-79
2021/11/10 10:57:20;;;;;;;29.03;12.97;;;;;12.10;102006.00;;;;10398097;28;20187;-79
2021/11/10 11:02:25;;;;;;;23.17;13.37;;;;;12.20;102005.00;;;;10381670;28;20609;-77
2021/11/10 11:07:31;;;;;;;22.70;12.67;;;;;12.30;101985.00;;;;10381397;28;20590;-77
2021/11/10 11:12:35;;;;;;;23.97;13.10;;;;;11.90;101990.00;;;;10379496;28;20277;-77
2021/11/10 11:17:42;;;;;;;22.97;12.17;;;;;11.10;101985.00;;;;10377218;28;20207;-76
2021/11/10 11:22:47;;;;;;;20.03;12.57;;;;;11.50;101980.00;;;;10405130;28;20198;-77
2021/11/10 11:27:53;;;;;;;20.50;12.37;;;;;12.20;101988.00;;;;10373809;28;20215;-77
2021/11/10 11:33:00;;;;;;;24.20;12.73;;;;;12.40;101984.00;;;;10394950;28;20230;-78
2021/11/10 11:38:04;;;;;;;24.23;12.60;;;;;12.60;101987.00;;;;10417937;28;20237;-78
2021/11/10 11:43:10;;;;;;;25.60;13.50;;;;;12.90;101971.00;;;;10420496;28;20194;-78
2021/11/10 11:48:16;;;;;;;21.10;13.13;;;;;13.00;101967.00;;;;10419901;28;20236;-79
2021/11/10 11:53:19;;;;;;;26.27;13.43;;;;;13.10;101954.00;;;;10423623;28;20689;-79
2021/11/10 11:58:28;;;;;;;24.30;11.90;;;;;13.20;101943.00;;;;10429439;28;20345;-79
2021/11/10 12:03:34;;;;;;;22.43;11.90;;;;;13.30;101928.00;;;;10417537;28;20206;-79
2021/11/10 12:08:48;;;;;;;20.00;11.90;;;;;13.40;101935.00;;;;10371944;28;20721;-79
2021/11/10 12:14:29;;;;;;;22.80;11.87;;;;;13.50;101911.00;;;;10388003;28;20226;-79
2021/11/10 12:19:51;;;;;;;20.53;11.27;;;;;13.20;101911.00;;;;10455985;28;20202;-78
2021/11/10 12:25:14;;;;;;;19.17;10.50;;;;;13.30;101901.00;;;;10410957;28;20245;-77
2021/11/10 12:30:25;;;;;;;21.47;12.03;;;;;13.10;101892.00;;;;10382100;28;20230;-79
2021/11/10 12:35:35;;;;;;;24.20;10.80;;;;;13.10;101897.00;;;;10388375;28;20199;-79
2021/11/10 12:40:46;;;;;;;18.27;10.67;;;;;13.00;101890.00;;;;10431341;28;20190;-79
2021/11/10 12:45:51;;;;;;;20.40;11.43;;;;;13.00;101905.00;;;;10411586;28;20198;-79
2021/11/10 12:50:53;;;;;;;21.57;10.70;;;;;12.90;101913.00;;;;10411574;28;20220;-79
2021/11/10 12:55:56;;;;;;;25.37;12.27;;;;;12.90;101923.00;;;;10443961;28;20198;-78
2021/11/10 13:01:08;;;;;;;20.47;11.50;;;;;12.70;101922.00;;;;10428192;28;20337;-79
2021/11/10 13:06:22;;;;;;;26.13;12.20;;;;;12.70;101924.00;;;;10425789;28;20431;-79
2021/11/10 13:11:37;;;;;;;20.73;11.23;;;;;12.50;101924.00;;;;10401921;28;20227;-78
2021/11/10 13:17:02;;;;;;;18.47;11.27;;;;;12.80;101907.00;;;;10401680;28;20207;-79
2021/11/10 13:22:05;;;;;;;21.97;12.20;;;;;12.90;101904.00;;;;10401849;28;20621;-79
2021/11/10 13:27:07;;;;;;;20.70;12.10;;;;;13.00;101901.00;;;;10411843;28;20720;-79
2021/11/10 13:32:14;;;;;;;22.53;12.67;;;;;13.00;101913.00;;;;10409590;28;20222;-78
2021/11/10 13:37:19;;;;;;;28.07;12.33;;;;;13.10;101905.00;;;;10409494;28;20241;-79
2021/11/10 13:42:25;;;;;;;20.87;12.87;;;;;13.10;101896.00;;;;10441928;28;20194;-78
2021/11/10 13:47:29;;;;;;;20.77;9.93;;;;;13.20;101900.00;;;;10408088;28;20190;-76
2021/11/10 13:52:31;;;;;;;21.43;10.43;;;;;13.00;101889.00;;;;10422789;28;20353;-76
2021/11/10 13:57:36;;;;;;;17.33;10.17;;;;;13.00;101884.00;;;;10441008;28;20253;-79
2021/11/10 14:02:46;;;;;;;19.63;10.20;;;;;13.00;101879.00;;;;10398380;28;20190;-79
2021/11/10 14:07:49;;;;;;;24.43;11.43;;;;;13.80;101870.00;;;;10384982;28;20256;-79
2021/11/10 14:13:10;;;;;;;19.53;10.30;;;;;13.90;101873.00;;;;10424354;28;20218;-76
2021/11/10 14:18:15;;;;;;;21.33;11.73;;;;;14.30;101877.00;;;;10421436;28;20668;-79
2021/11/10 14:23:28;;;;;;;22.33;11.50;;;;;13.50;101858.00;;;;10407501;28;20198;-77
2021/11/10 14:28:43;;;;;;;26.80;12.03;;;;;12.30;101876.00;;;;10408077;28;20205;-79
2021/11/10 14:34:02;;;;;;;24.23;11.87;;;;;11.60;101880.00;;;;10423743;28;20290;-79
2021/11/10 14:39:08;;;;;;;24.20;12.27;;;;;11.20;101874.00;;;;10449705;28;20209;-79
2021/11/10 14:44:13;;;;;;;29.77;12.33;;;;;11.00;101888.00;;;;10430658;28;20216;-79
2021/11/10 14:49:16;;;;;;;24.70;13.67;;;;;10.70;101884.00;;;;10415705;28;20206;-79
2021/11/10 14:54:36;;;;;;;25.47;13.13;;;;;10.50;101899.00;;;;10416387;28;20214;-79
2021/11/10 14:59:40;;;;;;;28.37;14.80;;;;;10.70;101888.00;;;;10397760;28;20289;-79
2021/11/10 15:04:53;;;;;;;35.23;15.30;;;;;10.90;101893.00;;;;10410441;28;20209;-78
2021/11/10 15:10:22;;;;;;;28.43;13.40;;;;;10.50;101899.00;;;;10400534;28;20202;-79
2021/11/10 15:15:28;;;;;;;26.73;14.50;;;;;10.30;101880.00;;;;10396662;28;20273;-79
2021/11/10 15:20:30;;;;;;;28.50;14.57;;;;;9.90;101892.00;;;;10428853;28;20256;-79
2021/11/10 15:25:35;;;;;;;25.67;13.43;;;;;9.60;101877.00;;;;10414340;28;20202;-79
2021/11/10 15:30:46;;;;;;;29.07;13.27;;;;;9.30;101881.00;;;;10417170;28;20581;-78
2021/11/10 15:35:52;;;;;;;29.70;13.50;;;;;9.10;101870.00;;;;10404759;28;20219;-78
2021/11/10 15:40:57;;;;;;;31.53;13.40;;;;;8.80;101872.00;;;;10425481;28;20294;-78
2021/11/10 15:46:06;;;;;;;31.07;14.40;;;;;8.60;101873.00;;;;10420336;28;20225;-78
2021/11/10 15:51:08;;;;;;;25.97;13.80;;;;;8.30;101875.00;;;;10412267;28;20198;-78
2021/11/10 15:56:10;;;;;;;27.30;14.17;;;;;8.00;101883.00;;;;10429120;28;20216;-78
2021/11/10 16:01:12;;;;;;;28.17;13.80;;;;;7.80;101888.00;;;;10445701;28;20547;-78
2021/11/10 16:06:15;;;;;;;31.17;14.73;;;;;7.60;101886.00;;;;10428107;28;20198;-78
2021/11/10 16:11:37;;;;;;;31.00;15.47;;;;;7.40;101877.00;;;;10430210;28;20308;-78
2021/11/10 16:16:39;;;;;;;26.87;13.50;;;;;7.20;101898.00;;;;10441686;28;20201;-77
2021/11/10 16:21:41;;;;;;;31.77;15.50;;;;;7.10;101902.00;;;;10410238;28;20289;-77
2021/11/10 16:26:46;;;;;;;42.67;20.90;;;;;6.90;101898.00;;;;10425467;28;20296;-77
2021/11/10 16:37:27;;;;;;;38.20;19.00;;;;;6.70;101891.00;;;;10324528;28;20194;-77
2021/11/10 16:42:29;;;;;;;36.50;16.27;;;;;6.60;101900.00;;;;10445037;28;20198;-77
2021/11/10 16:47:31;;;;;;;34.93;15.90;;;;;6.50;101913.00;;;;10409769;28;20206;-77
2021/11/10 16:52:33;;;;;;;33.37;15.97;;;;;6.40;101916.00;;;;10407236;28;20273;-77
2021/11/10 16:57:45;;;;;;;35.93;14.67;;;;;6.40;101913.00;;;;10408307;28;20206;-77
2021/11/10 17:02:47;;;;;;;32.27;14.87;;;;;6.30;101916.00;;;;10410208;28;20260;-77
2021/11/10 17:07:49;;;;;;;35.00;14.90;;;;;6.20;101919.00;;;;10404189;28;20869;-78
2021/11/10 17:12:51;;;;;;;35.63;14.97;;;;;6.10;101921.00;;;;10438077;28;20265;-77
2021/11/10 17:17:54;;;;;;;36.10;14.67;;;;;6.00;101924.00;;;;10408970;28;20186;-77
2021/11/10 17:23:00;;;;;;;33.93;13.93;;;;;5.90;101918.00;;;;10405285;28;20997;-77
2021/11/10 17:28:03;;;;;;;27.80;13.37;;;;;5.70;101912.00;;;;10405623;28;20220;-78
2021/11/10 17:33:12;;;;;;;27.90;14.00;;;;;5.50;101909.00;;;;10428175;28;20245;-78
2021/11/10 17:38:15;;;;;;;32.77;14.17;;;;;5.40;101901.00;;;;10421957;28;20194;-78
2021/11/10 17:43:21;;;;;;;36.87;14.77;;;;;5.30;101903.00;;;;10401953;28;20289;-77
2021/11/10 17:48:24;;;;;;;31.23;14.57;;;;;5.20;101906.00;;;;10437206;28;20199;-78
2021/11/10 17:53:26;;;;;;;31.17;14.57;;;;;5.10;101898.00;;;;10421542;28;20222;-78
2021/11/10 17:58:28;;;;;;;37.17;16.27;;;;;5.00;101894.00;;;;10421800;28;20755;-78
2021/11/10 18:03:32;;;;;;;34.03;16.03;;;;;5.00;101890.00;;;;10439342;28;20190;-78
2021/11/10 18:08:38;;;;;;;29.03;13.83;;;;;4.90;101890.00;;;;10405889;28;20669;-78
2021/11/10 18:13:40;;;;;;;40.20;17.00;;;;;4.70;101885.00;;;;10448082;28;20246;-78
2021/11/10 18:18:43;;;;;;;37.73;17.27;;;;;4.70;101886.00;;;;10420379;28;20268;-78
2021/11/10 18:23:50;;;;;;;36.83;18.93;;;;;4.60;101890.00;;;;10407752;28;20189;-78
2021/11/10 18:28:56;;;;;;;34.63;18.17;;;;;4.60;101882.00;;;;10400666;28;20212;-78
2021/11/10 18:33:58;;;;;;;47.63;24.73;;;;;4.50;101890.00;;;;10386448;28;20373;-79
2021/11/10 18:39:00;;;;;;;43.03;22.77;;;;;4.40;101884.00;;;;10404724;28;20257;-78
2021/11/10 18:44:06;;;;;;;42.70;22.10;;;;;4.30;101881.00;;;;10404333;28;20198;-78
2021/11/10 18:49:08;;;;;;;43.87;23.00;;;;;4.20;101874.00;;;;10405435;28;20213;-78
2021/11/10 18:54:10;;;;;;;47.70;24.60;;;;;4.10;101875.00;;;;10421319;28;20218;-78
2021/11/10 18:59:18;;;;;;;46.17;24.13;;;;;4.10;101870.00;;;;10389319;28;20229;-78
2021/11/10 19:04:24;;;;;;;48.13;23.47;;;;;4.00;101881.00;;;;10437963;28;20210;-78
2021/11/10 19:09:53;;;;;;;36.00;19.83;;;;;3.90;101875.00;;;;10421530;28;20201;-78
2021/11/10 19:15:22;;;;;;;44.67;19.80;;;;;3.80;101883.00;;;;10438418;28;20226;-78
2021/11/10 19:20:27;;;;;;;39.00;19.43;;;;;3.70;101879.00;;;;10420953;28;20226;-79
2021/11/10 19:25:33;;;;;;;45.53;19.57;;;;;3.70;101889.00;;;;10418897;28;20201;-78
2021/11/10 19:30:40;;;;;;;38.90;20.30;;;;;3.60;101885.00;;;;10402270;28;20229;-78
2021/11/10 19:35:45;;;;;;;35.10;19.07;;;;;3.50;101897.00;;;;10403956;28;20214;-78
2021/11/10 19:40:47;;;;;;;34.00;19.60;;;;;3.40;101891.00;;;;10423215;28;21004;-78
2021/11/10 19:45:52;;;;;;;40.00;22.10;;;;;3.40;101895.00;;;;10388343;28;20249;-78
2021/11/10 19:50:54;;;;;;;44.93;23.00;;;;;3.30;101903.00;;;;10428049;28;20229;-78
2021/11/10 19:56:03;;;;;;;42.10;22.50;;;;;3.20;101905.00;;;;10430751;28;20225;-78
2021/11/10 20:01:12;;;;;;;40.93;21.93;;;;;3.20;101894.00;;;;10425041;28;20202;-78
2021/11/10 20:06:14;;;;;;;43.53;23.90;;;;;3.20;101899.00;;;;10444618;28;20553;-78
2021/11/10 20:11:18;;;;;;;52.50;24.63;;;;;3.20;101895.00;;;;10438414;28;20208;-78
2021/11/10 20:16:20;;;;;;;41.30;23.03;;;;;3.20;101897.00;;;;10473593;28;20207;-78
2021/11/10 20:21:23;;;;;;;42.57;22.20;;;;;3.20;101890.00;;;;10411787;28;20289;-78
2021/11/10 20:26:27;;;;;;;39.50;22.50;;;;;3.10;101894.00;;;;10442073;28;20215;-78
2021/11/10 20:31:29;;;;;;;49.73;25.37;;;;;3.00;101915.00;;;;10411078;28;20238;-78
2021/11/10 20:36:31;;;;;;;50.80;24.13;;;;;2.90;101918.00;;;;10446776;28;20269;-78
2021/11/10 20:41:33;;;;;;;50.90;23.30;;;;;2.90;101918.00;;;;10426510;28;20669;-79
2021/11/10 20:46:36;;;;;;;43.07;22.80;;;;;2.80;101916.00;;;;10409711;28;20221;-78
2021/11/10 20:51:38;;;;;;;54.90;25.53;;;;;2.80;101913.00;;;;10381727;28;20206;-79
2021/11/10 20:56:40;;;;;;;47.77;21.13;;;;;2.80;101904.00;;;;10421689;28;20719;-78
2021/11/10 21:01:44;;;;;;;48.97;23.00;;;;;2.70;101895.00;;;;10427813;28;20332;-79
2021/11/10 21:06:46;;;;;;;47.70;21.27;;;;;2.70;101890.00;;;;10431092;28;20681;-78
2021/11/10 21:11:51;;;;;;;48.20;21.03;;;;;2.70;101888.00;;;;10426097;28;20198;-79
2021/11/10 21:17:03;;;;;;;46.87;21.57;;;;;2.80;101898.00;;;;10424221;28;20198;-79
2021/11/10 21:22:08;;;;;;;48.50;20.63;;;;;2.70;101905.00;;;;10403856;28;20202;-78
2021/11/10 21:27:20;;;;;;;51.13;20.20;;;;;2.70;101902.00;;;;10409404;28;20195;-77
2021/11/10 21:32:24;;;;;;;50.43;21.40;;;;;2.60;101895.00;;;;10438852;28;20281;-78
2021/11/10 21:37:26;;;;;;;51.53;21.73;;;;;2.60;101902.00;;;;10407342;28;20205;-78
2021/11/10 21:42:28;;;;;;;52.73;21.37;;;;;2.70;101911.00;;;;10411805;28;20720;-79
2021/11/10 21:47:31;;;;;;;64.80;24.30;;;;;2.80;101902.00;;;;10408228;28;20199;-78
2021/11/10 21:52:35;;;;;;;62.30;24.83;;;;;2.90;101906.00;;;;10424209;28;20222;-78
2021/11/10 21:57:38;;;;;;;55.30;22.03;;;;;2.90;101917.00;;;;10423835;28;20202;-79
2021/11/10 22:02:40;;;;;;;53.83;24.83;;;;;2.80;101915.00;;;;10407590;28;20195;-78
2021/11/10 22:07:45;;;;;;;61.47;22.53;;;;;2.80;101927.00;;;;10393927;28;20202;-78
2021/11/10 22:12:48;;;;;;;52.60;20.00;;;;;2.70;101942.00;;;;10421506;28;20268;-78
2021/11/10 22:17:52;;;;;;;51.27;22.27;;;;;2.60;101951.00;;;;10398924;28;20293;-78
2021/11/10 22:22:54;;;;;;;46.80;20.93;;;;;2.60;101949.00;;;;10384909;28;20202;-78
2021/11/10 22:27:57;;;;;;;53.30;22.60;;;;;2.60;101934.00;;;;10429961;28;20230;-78
2021/11/10 22:32:59;;;;;;;47.57;23.20;;;;;2.70;101945.00;;;;10406602;28;20232;-79
2021/11/10 22:38:03;;;;;;;58.17;25.43;;;;;2.80;101948.00;;;;10396381;28;20202;-78
2021/11/10 22:43:07;;;;;;;63.00;26.83;;;;;2.80;101939.00;;;;10419988;28;20202;-78
2021/11/10 22:48:09;;;;;;;57.37;24.97;;;;;2.90;101935.00;;;;10422528;28;20538;-78
2021/11/10 22:53:11;;;;;;;64.50;27.80;;;;;2.90;101930.00;;;;10419042;28;20250;-78
2021/11/10 22:58:13;;;;;;;58.47;27.33;;;;;2.90;101944.00;;;;10414895;28;20206;-78
2021/11/10 23:03:15;;;;;;;59.30;26.70;;;;;2.90;101950.00;;;;10424292;28;20950;-78
2021/11/10 23:08:19;;;;;;;63.27;27.63;;;;;2.90;101944.00;;;;10420503;28;20319;-78
2021/11/10 23:13:21;;;;;;;57.00;26.00;;;;;2.90;101937.00;;;;10425310;28;20683;-78
2021/11/10 23:18:24;;;;;;;60.23;24.00;;;;;2.90;101928.00;;;;10412462;28;20297;-78
2021/11/10 23:23:26;;;;;;;57.57;25.50;;;;;2.90;101930.00;;;;10421124;28;20550;-78
2021/11/10 23:28:28;;;;;;;50.47;22.83;;;;;2.70;101940.00;;;;10434182;28;20248;-79
2021/11/10 23:33:30;;;;;;;47.40;22.47;;;;;2.60;101942.00;;;;10391913;28;20238;-78
2021/11/10 23:38:32;;;;;;;47.13;21.40;;;;;2.40;101928.00;;;;10413850;28;20213;-79
2021/11/10 23:43:34;;;;;;;62.63;23.67;;;;;2.40;101934.00;;;;10413975;28;20205;-78
2021/11/10 23:48:36;;;;;;;52.30;23.00;;;;;2.40;101930.00;;;;10370518;28;20203;-79
2021/11/10 23:53:38;;;;;;;51.37;24.80;;;;;2.50;101929.00;;;;10388013;28;20301;-79
2021/11/10 23:58:40;;;;;;;59.33;25.03;;;;;2.80;101922.00;;;;10388648;28;20210;-79
